Startpagina
METAR-TAF:

METAR-TAF

Vliegvelden :

Vlieland, Nederland

breedte: 53-15N, lengte: 004-55E, hoogte: 11 m

Actueel weer

Dit bericht is 24 minuten geleden gemaakt, om 18:55 UTC
Wind 12 kt uit het oostnoordoosten
Temperatuur 19°C
Vochtigheid 64%
Druk 1015 hPa
Zicht 10 km of meer
Weinig wolken op 11000 ft
Geheel bewolkt op 20000 ft

METAR: EHVL 221855Z AUTO 07012KT 9999 FEW110 OVC200 19/12 Q1015 BLU

Tijdstip: 21:19 (19:19 UTC)


TAF: ontbreekt

Waarnemingen en weersverwachtingen van meer dan 4000 vliegvelden (METAR en TAF).

De beschikbare stations zijn de gele en rode punten op de kaart.

Ga met uw muis naar het station om de naam te zien.

Klik dan om waarnemingen en weersverwachtingen te zien.

kaart wijzigen: klik op de groene knoppen met een zwart kruis om in te zoomen, op de groene knop met een streepje om uit te zoomen of op de groene pijlen voor aangrenzende kaarten.


METAR-TAF: